Deering Airport Deering US
ICAO: PADE
IATA:
Category: Medium
Scheduled Services:

Elevation: 21 ft
TransAlt. 18000 ft.

Airport Communications:
ANCHORAGE CNTR:119.2
ASOS:135.5
CTAF:122.9

PADE Zoom In..

If you have problems with the map follow the link
https://www.worldairports.se/pages/airport.php?
ICAO=PADE

Runways:

(A) RW 02 length 3320 ft width 75 ft
---- / hdg 21

(B) RW 11 length 2660 ft width 75 ft
---- / hdg 110

(C) RW 20 length 3320 ft width 75 ft
---- / hdg 201

(D) RW 29 length 2660 ft width 75 ft
---- / hdg 290

Location; PADE
Day. 10 / Time. 00.53 Zulu
* Altimeter: 29.18
* Temperature: -01° c. -30.2°f.
* Wind from: 080° Speed 19 kn with Gusts up to 25 kn.
Dewpoint: -03° c.
Visibility: 10 Statute Miles.
Clouds: Overcast 8000 ft.

PADE 100053Z AUTO 08019G25KT 10SM OVC080 M01/M03 A2918 RMK AO2 SLP883 T10111028 TSNO $


Wind From 080°
Speed 19 kn.

 
 
jpsmedia worldairports.se 2019   terms of use